sensor_id;sensor_type;location;lat;lon;timestamp;pressure;altitude;pressure_sealevel;temperature;humidity
6136;BME280;24008;42.664;23.372;2023-02-11T00:00:42;96415.50;;;-3.17;66.46
6136;BME280;24008;42.664;23.372;2023-02-11T00:03:09;96326.97;;;-3.74;66.10
6136;BME280;24008;42.664;23.372;2023-02-11T00:05:35;96264.13;;;-4.11;66.32
6136;BME280;24008;42.664;23.372;2023-02-11T00:08:02;96245.97;;;-4.25;66.10
6136;BME280;24008;42.664;23.372;2023-02-11T00:10:30;96366.69;;;-3.48;66.20
6136;BME280;24008;42.664;23.372;2023-02-11T00:12:57;96244.28;;;-4.23;66.16
6136;BME280;24008;42.664;23.372;2023-02-11T00:15:24;96423.88;;;-3.21;66.32
6136;BME280;24008;42.664;23.372;2023-02-11T00:17:50;96418.06;;;-3.23;66.15
6136;BME280;24008;42.664;23.372;2023-02-11T00:20:17;96409.81;;;-3.28;66.06
6136;BME280;24008;42.664;23.372;2023-02-11T00:22:44;96418.13;;;-3.26;66.24
6136;BME280;24008;42.664;23.372;2023-02-11T00:25:11;96411.50;;;-3.30;66.41
6136;BME280;24008;42.664;23.372;2023-02-11T00:27:39;96421.53;;;-3.35;66.15
6136;BME280;24008;42.664;23.372;2023-02-11T00:30:07;96368.56;;;-3.66;66.65
6136;BME280;24008;42.664;23.372;2023-02-11T00:32:34;96408.28;;;-3.41;66.56
6136;BME280;24008;42.664;23.372;2023-02-11T00:35:00;96412.47;;;-3.45;66.73
6136;BME280;24008;42.664;23.372;2023-02-11T00:37:27;96374.38;;;-3.67;66.64
6136;BME280;24008;42.664;23.372;2023-02-11T00:39:54;96411.66;;;-3.48;66.87
6136;BME280;24008;42.664;23.372;2023-02-11T00:42:21;96418.38;;;-3.50;66.89
6136;BME280;24008;42.664;23.372;2023-02-11T00:44:49;96400.91;;;-3.52;66.52
6136;BME280;24008;42.664;23.372;2023-02-11T00:47:16;96406.66;;;-3.48;66.32
6136;BME280;24008;42.664;23.372;2023-02-11T00:49:42;96304.09;;;-4.14;66.16
6136;BME280;24008;42.664;23.372;2023-02-11T00:52:09;96414.25;;;-3.53;66.17
6136;BME280;24008;42.664;23.372;2023-02-11T00:54:36;96319.00;;;-4.08;66.03
6136;BME280;24008;42.664;23.372;2023-02-11T00:57:03;96390.53;;;-4.01;66.00
6136;BME280;24008;42.664;23.372;2023-02-11T00:59:29;96347.91;;;-3.83;66.04
6136;BME280;24008;42.664;23.372;2023-02-11T01:01:58;96397.59;;;-3.57;65.93
6136;BME280;24008;42.664;23.372;2023-02-11T01:04:24;96398.44;;;-3.56;65.87
6136;BME280;24008;42.664;23.372;2023-02-11T01:06:51;96402.63;;;-3.60;65.73
6136;BME280;24008;42.664;23.372;2023-02-11T01:09:18;96370.34;;;-3.77;65.57
6136;BME280;24008;42.664;23.372;2023-02-11T01:11:45;96352.16;;;-3.91;65.58
6136;BME280;24008;42.664;23.372;2023-02-11T01:14:12;96328.94;;;-4.02;65.62
6136;BME280;24008;42.664;23.372;2023-02-11T01:16:39;96348.81;;;-3.90;65.58
6136;BME280;24008;42.664;23.372;2023-02-11T01:19:07;96389.41;;;-3.71;65.54
6136;BME280;24008;42.664;23.372;2023-02-11T01:21:34;96396.16;;;-3.79;65.91
6136;BME280;24008;42.664;23.372;2023-02-11T01:24:01;96243.81;;;-4.65;65.89
6136;BME280;24008;42.664;23.372;2023-02-11T01:26:27;96229.06;;;-4.89;65.75
6136;BME280;24008;42.664;23.372;2023-02-11T01:28:54;96391.25;;;-3.87;66.18
6136;BME280;24008;42.664;23.372;2023-02-11T01:31:21;96317.56;;;-4.30;66.27
6136;BME280;24008;42.664;23.372;2023-02-11T01:33:48;96379.63;;;-3.89;66.63
6136;BME280;24008;42.664;23.372;2023-02-11T01:36:16;96383.81;;;-3.93;66.80
6136;BME280;24008;42.664;23.372;2023-02-11T01:38:43;96229.06;;;-4.91;66.99
6136;BME280;24008;42.664;23.372;2023-02-11T01:41:11;96378.88;;;-3.99;66.73
6136;BME280;24008;42.664;23.372;2023-02-11T01:43:44;96210.13;;;-5.09;66.83
6136;BME280;24008;42.664;23.372;2023-02-11T01:46:21;96218.34;;;-5.00;66.60
6136;BME280;24008;42.664;23.372;2023-02-11T01:48:54;96379.75;;;-4.05;66.60
6136;BME280;24008;42.664;23.372;2023-02-11T01:51:26;96393.91;;;-4.08;66.67
6136;BME280;24008;42.664;23.372;2023-02-11T01:53:57;96378.94;;;-4.08;66.98
6136;BME280;24008;42.664;23.372;2023-02-11T01:56:45;96387.25;;;-4.08;66.97
6136;BME280;24008;42.664;23.372;2023-02-11T01:59:33;96382.25;;;-4.09;67.22
6136;BME280;24008;42.664;23.372;2023-02-11T02:02:07;96420.63;;;-4.15;67.47
6136;BME280;24008;42.664;23.372;2023-02-11T02:04:40;96379.00;;;-4.17;67.39
6136;BME280;24008;42.664;23.372;2023-02-11T02:07:15;96373.22;;;-4.21;67.30
6136;BME280;24008;42.664;23.372;2023-02-11T02:09:48;96379.91;;;-4.24;67.88
6136;BME280;24008;42.664;23.372;2023-02-11T02:12:18;96379.94;;;-4.27;67.85
6136;BME280;24008;42.664;23.372;2023-02-11T02:14:45;96318.66;;;-4.65;67.73
6136;BME280;24008;42.664;23.372;2023-02-11T02:17:23;96283.09;;;-4.91;68.14
6136;BME280;24008;42.664;23.372;2023-02-11T02:20:07;96379.94;;;-4.30;68.08
6136;BME280;24008;42.664;23.372;2023-02-11T02:23:15;96336.94;;;-4.60;68.03
6136;BME280;24008;42.664;23.372;2023-02-11T02:26:03;96312.94;;;-4.79;68.12
6136;BME280;24008;42.664;23.372;2023-02-11T02:28:59;96375.03;;;-4.37;68.33
6136;BME280;24008;42.664;23.372;2023-02-11T02:31:51;96377.53;;;-4.40;68.21
6136;BME280;24008;42.664;23.372;2023-02-11T02:34:29;96375.06;;;-4.43;68.33
6136;BME280;24008;42.664;23.372;2023-02-11T02:37:01;96246.75;;;-5.20;68.57
6136;BME280;24008;42.664;23.372;2023-02-11T02:39:32;96260.84;;;-5.19;68.52
6136;BME280;24008;42.664;23.372;2023-02-11T02:42:01;96366.81;;;-4.52;68.44
6136;BME280;24008;42.664;23.372;2023-02-11T02:44:28;96385.94;;;-4.53;68.97
6136;BME280;24008;42.664;23.372;2023-02-11T02:46:56;96375.97;;;-4.53;68.76
6136;BME280;24008;42.664;23.372;2023-02-11T02:49:24;96306.44;;;-4.98;68.61
6136;BME280;24008;42.664;23.372;2023-02-11T02:52:10;96041.75;;;-6.61;68.72
6136;BME280;24008;42.664;23.372;2023-02-11T02:57:37;96390.16;;;-4.59;68.96
6136;BME280;24008;42.664;23.372;2023-02-11T03:00:20;96268.44;;;-5.32;68.61
6136;BME280;24008;42.664;23.372;2023-02-11T03:02:57;96296.63;;;-5.26;68.64
6136;BME280;24008;42.664;23.372;2023-02-11T03:05:38;96217.19;;;-5.84;69.05
6136;BME280;24008;42.664;23.372;2023-02-11T03:08:14;96309.06;;;-5.26;69.30
6136;BME280;24008;42.664;23.372;2023-02-11T03:10:44;96302.50;;;-5.40;69.81
6136;BME280;24008;42.664;23.372;2023-02-11T03:13:13;96379.50;;;-4.87;69.90
6136;BME280;24008;42.664;23.372;2023-02-11T03:15:45;96387.84;;;-4.93;70.18
6136;BME280;24008;42.664;23.372;2023-02-11T03:18:16;96267.00;;;-5.87;70.41
6136;BME280;24008;42.664;23.372;2023-02-11T03:20:48;96199.13;;;-6.25;69.99
6136;BME280;24008;42.664;23.372;2023-02-11T03:23:18;96384.63;;;-5.12;70.68
6136;BME280;24008;42.664;23.372;2023-02-11T03:25:49;96286.03;;;-5.69;71.08
6136;BME280;24008;42.664;23.372;2023-02-11T03:28:23;96270.34;;;-5.91;70.63
6136;BME280;24008;42.664;23.372;2023-02-11T03:30:57;96374.69;;;-5.24;71.38
6136;BME280;24008;42.664;23.372;2023-02-11T03:33:31;96378.03;;;-5.28;71.64
6136;BME280;24008;42.664;23.372;2023-02-11T03:36:06;96388.00;;;-5.31;71.84
6136;BME280;24008;42.664;23.372;2023-02-11T03:38:38;96203.34;;;-6.41;71.57
6136;BME280;24008;42.664;23.372;2023-02-11T03:41:09;96383.84;;;-5.30;71.80
6136;BME280;24008;42.664;23.372;2023-02-11T03:43:41;96381.38;;;-5.32;72.00
6136;BME280;24008;42.664;23.372;2023-02-11T03:46:11;96385.53;;;-5.32;71.94
6136;BME280;24008;42.664;23.372;2023-02-11T03:48:43;96386.38;;;-5.32;71.95
6136;BME280;24008;42.664;23.372;2023-02-11T03:51:12;96347.44;;;-5.56;71.96
6136;BME280;24008;42.664;23.372;2023-02-11T03:53:41;96344.09;;;-5.58;72.32
6136;BME280;24008;42.664;23.372;2023-02-11T03:56:12;96157.81;;;-6.69;72.02
6136;BME280;24008;42.664;23.372;2023-02-11T03:58:43;96382.22;;;-5.31;72.08
6136;BME280;24008;42.664;23.372;2023-02-11T04:01:10;96371.38;;;-5.26;72.05
6136;BME280;24008;42.664;23.372;2023-02-11T04:03:37;96370.56;;;-5.25;71.75
6136;BME280;24008;42.664;23.372;2023-02-11T04:06:04;96298.53;;;-5.84;71.29
6136;BME280;24008;42.664;23.372;2023-02-11T04:08:33;96371.38;;;-5.29;71.79
6136;BME280;24008;42.664;23.372;2023-02-11T04:10:59;96386.34;;;-5.30;71.48
6136;BME280;24008;42.664;23.372;2023-02-11T04:13:26;96245.53;;;-6.15;71.71
6136;BME280;24008;42.664;23.372;2023-02-11T04:15:53;96381.38;;;-5.32;71.86
6136;BME280;24008;42.664;23.372;2023-02-11T04:18:20;96379.72;;;-5.34;72.31
6136;BME280;24008;42.664;23.372;2023-02-11T04:20:48;96248.06;;;-6.18;71.94
6136;BME280;24008;42.664;23.372;2023-02-11T04:23:15;96378.13;;;-5.52;72.17
6136;BME280;24008;42.664;23.372;2023-02-11T04:25:44;96370.69;;;-5.63;72.28
6136;BME280;24008;42.664;23.372;2023-02-11T04:28:10;96355.03;;;-5.94;72.13
6136;BME280;24008;42.664;23.372;2023-02-11T04:30:37;96352.56;;;-6.12;72.95
6136;BME280;24008;42.664;23.372;2023-02-11T04:33:04;96380.75;;;-6.08;73.01
6136;BME280;24008;42.664;23.372;2023-02-11T04:35:30;96306.16;;;-6.60;73.40
6136;BME280;24008;42.664;23.372;2023-02-11T04:37:57;96385.75;;;-6.25;74.26
6136;BME280;24008;42.664;23.372;2023-02-11T04:40:24;96318.59;;;-6.65;74.48
6136;BME280;24008;42.664;23.372;2023-02-11T04:42:52;96365.84;;;-6.34;75.53
6136;BME280;24008;42.664;23.372;2023-02-11T04:45:19;96365.03;;;-6.41;75.58
6136;BME280;24008;42.664;23.372;2023-02-11T04:47:46;96373.31;;;-6.40;75.35
6136;BME280;24008;42.664;23.372;2023-02-11T04:50:12;96370.81;;;-6.45;76.41
6136;BME280;24008;42.664;23.372;2023-02-11T04:52:39;96285.44;;;-7.03;75.99
6136;BME280;24008;42.664;23.372;2023-02-11T04:55:07;96377.47;;;-6.55;77.14
6136;BME280;24008;42.664;23.372;2023-02-11T04:57:34;96345.13;;;-6.70;77.37
6136;BME280;24008;42.664;23.372;2023-02-11T05:00:02;96373.31;;;-6.56;77.13
6136;BME280;24008;42.664;23.372;2023-02-11T05:02:29;96303.63;;;-7.07;77.90
6136;BME280;24008;42.664;23.372;2023-02-11T05:04:56;96365.00;;;-6.58;78.33
6136;BME280;24008;42.664;23.372;2023-02-11T05:07:23;96355.06;;;-6.58;78.52
6136;BME280;24008;42.664;23.372;2023-02-11T05:09:50;96370.81;;;-6.57;77.75
6136;BME280;24008;42.664;23.372;2023-02-11T05:12:17;96362.53;;;-6.58;77.44
6136;BME280;24008;42.664;23.372;2023-02-11T05:14:43;96271.34;;;-7.07;78.31
6136;BME280;24008;42.664;23.372;2023-02-11T05:17:12;96307.78;;;-6.88;78.03
6136;BME280;24008;42.664;23.372;2023-02-11T05:19:40;96358.38;;;-6.56;78.25
6136;BME280;24008;42.664;23.372;2023-02-11T05:22:07;96350.91;;;-6.51;78.02
6136;BME280;24008;42.664;23.372;2023-02-11T05:24:34;96312.78;;;-6.80;78.33
6136;BME280;24008;42.664;23.372;2023-02-11T05:27:00;96340.13;;;-6.64;77.74
6136;BME280;24008;42.664;23.372;2023-02-11T05:29:27;96323.56;;;-6.68;77.97
6136;BME280;24008;42.664;23.372;2023-02-11T05:31:54;96282.94;;;-6.94;78.01
6136;BME280;24008;42.664;23.372;2023-02-11T05:34:22;96311.13;;;-6.81;77.77
6136;BME280;24008;42.664;23.372;2023-02-11T05:36:49;96201.72;;;-7.54;77.44
6136;BME280;24008;42.664;23.372;2023-02-11T05:39:16;96360.88;;;-6.59;77.65
6136;BME280;24008;42.664;23.372;2023-02-11T05:41:43;96360.88;;;-6.60;77.73
6136;BME280;24008;42.664;23.372;2023-02-11T05:44:09;96352.56;;;-6.68;77.08
6136;BME280;24008;42.664;23.372;2023-02-11T05:46:36;96355.91;;;-6.68;77.61
6136;BME280;24008;42.664;23.372;2023-02-11T05:49:04;96369.97;;;-6.79;77.57
6136;BME280;24008;42.664;23.372;2023-02-11T05:51:32;96361.69;;;-6.78;78.05
6136;BME280;24008;42.664;23.372;2023-02-11T05:53:59;96361.69;;;-6.69;78.71
6136;BME280;24008;42.664;23.372;2023-02-11T05:56:26;96370.00;;;-6.67;78.21
6136;BME280;24008;42.664;23.372;2023-02-11T05:58:52;96336.00;;;-6.66;78.46
6136;BME280;24008;42.664;23.372;2023-02-11T06:01:19;96334.34;;;-6.41;78.11
6136;BME280;24008;42.664;23.372;2023-02-11T06:03:46;96343.44;;;-6.10;77.34
6136;BME280;24008;42.664;23.372;2023-02-11T06:06:14;96356.63;;;-5.85;75.65
6136;BME280;24008;42.664;23.372;2023-02-11T06:08:42;96240.66;;;-6.51;74.96
6136;BME280;24008;42.664;23.372;2023-02-11T06:11:09;96300.28;;;-6.06;74.20
6136;BME280;24008;42.664;23.372;2023-02-11T06:13:36;96372.34;;;-5.57;73.53
6136;BME280;24008;42.664;23.372;2023-02-11T06:16:03;96372.31;;;-5.43;72.70
6136;BME280;24008;42.664;23.372;2023-02-11T06:18:30;96353.88;;;-5.18;72.52
6136;BME280;24008;42.664;23.372;2023-02-11T06:20:57;96348.75;;;-4.88;71.21
6136;BME280;24008;42.664;23.372;2023-02-11T06:23:24;96368.22;;;-4.19;70.24
6136;BME280;24008;42.664;23.372;2023-02-11T06:25:53;96372.09;;;-3.88;68.62
6136;BME280;24008;42.664;23.372;2023-02-11T06:28:19;96348.78;;;-3.87;67.57
6136;BME280;24008;42.664;23.372;2023-02-11T06:30:46;96302.66;;;-3.58;66.61
6136;BME280;24008;42.664;23.372;2023-02-11T06:33:13;96384.53;;;-2.44;65.18
6136;BME280;24008;42.664;23.372;2023-02-11T06:35:40;96276.97;;;-2.02;63.17
6136;BME280;24008;42.664;23.372;2023-02-11T06:38:07;96370.59;;;-0.76;59.05
6136;BME280;24008;42.664;23.372;2023-02-11T06:40:34;96367.72;;;-0.60;57.72
6136;BME280;24008;42.664;23.372;2023-02-11T06:43:02;96356.16;;;0.05;56.33
6136;BME280;24008;42.664;23.372;2023-02-11T06:45:29;96365.19;;;0.46;54.14
6136;BME280;24008;42.664;23.372;2023-02-11T06:47:56;96367.34;;;0.60;52.60
6136;BME280;24008;42.664;23.372;2023-02-11T06:50:22;96227.97;;;0.36;51.87
6136;BME280;24008;42.664;23.372;2023-02-11T06:52:50;96368.78;;;1.27;50.25
6136;BME280;24008;42.664;23.372;2023-02-11T06:55:17;96324.44;;;0.94;49.54
6136;BME280;24008;42.664;23.372;2023-02-11T06:57:44;96378.84;;;0.98;50.29
6136;BME280;24008;42.664;23.372;2023-02-11T07:00:13;96375.84;;;0.54;50.32
6136;BME280;24008;42.664;23.372;2023-02-11T07:02:58;96374.50;;;0.43;51.27
6136;BME280;24008;42.664;23.372;2023-02-11T07:05:25;96307.41;;;-0.22;52.06
6136;BME280;24008;42.664;23.372;2023-02-11T07:07:52;96373.56;;;0.13;51.50
6136;BME280;24008;42.664;23.372;2023-02-11T07:10:19;96318.66;;;-0.03;51.97
6136;BME280;24008;42.664;23.372;2023-02-11T07:12:46;96365.97;;;0.48;52.10
6136;BME280;24008;42.664;23.372;2023-02-11T07:15:14;96298.19;;;0.42;50.68
6136;BME280;24008;42.664;23.372;2023-02-11T07:17:41;96247.31;;;0.62;49.87
6136;BME280;24008;42.664;23.372;2023-02-11T07:20:09;96337.75;;;1.81;47.74
6136;BME280;24008;42.664;23.372;2023-02-11T07:22:36;96293.91;;;1.85;46.54
6136;BME280;24008;42.664;23.372;2023-02-11T07:25:04;96342.31;;;2.69;46.41
6136;BME280;24008;42.664;23.372;2023-02-11T07:27:31;96346.22;;;3.68;44.09
6136;BME280;24008;42.664;23.372;2023-02-11T07:29:58;96281.09;;;3.95;42.19
6136;BME280;24008;42.664;23.372;2023-02-11T07:32:26;96337.59;;;4.75;41.32
6136;BME280;24008;42.664;23.372;2023-02-11T07:34:53;96291.75;;;4.61;39.99
6136;BME280;24008;42.664;23.372;2023-02-11T07:37:20;96332.38;;;5.53;39.80
6136;BME280;24008;42.664;23.372;2023-02-11T07:39:47;96330.38;;;6.30;39.03
6136;BME280;24008;42.664;23.372;2023-02-11T07:42:14;96326.31;;;6.61;37.34
6136;BME280;24008;42.664;23.372;2023-02-11T07:44:41;96322.03;;;6.94;37.27
6136;BME280;24008;42.664;23.372;2023-02-11T07:47:07;96323.19;;;7.04;36.77
6136;BME280;24008;42.664;23.372;2023-02-11T07:49:35;96319.28;;;7.14;36.17
6136;BME280;24008;42.664;23.372;2023-02-11T07:52:02;96298.38;;;7.09;36.35
6136;BME280;24008;42.664;23.372;2023-02-11T07:54:29;96295.47;;;7.15;36.52
6136;BME280;24008;42.664;23.372;2023-02-11T07:56:56;96217.59;;;6.83;36.04
6136;BME280;24008;42.664;23.372;2023-02-11T07:59:23;96313.84;;;7.68;35.21
6136;BME280;24008;42.664;23.372;2023-02-11T08:01:50;96313.69;;;7.39;35.56
6136;BME280;24008;42.664;23.372;2023-02-11T08:04:16;96290.47;;;7.30;35.79
6136;BME280;24008;42.664;23.372;2023-02-11T08:06:44;96311.22;;;7.69;34.72
6136;BME280;24008;42.664;23.372;2023-02-11T08:09:14;96302.06;;;8.11;33.90
6136;BME280;24008;42.664;23.372;2023-02-11T08:11:42;96202.75;;;7.37;34.13
6136;BME280;24008;42.664;23.372;2023-02-11T08:14:09;96313.28;;;8.22;34.22
6136;BME280;24008;42.664;23.372;2023-02-11T08:16:37;96194.28;;;7.82;33.71
6136;BME280;24008;42.664;23.372;2023-02-11T08:19:09;96294.28;;;8.28;34.38
6136;BME280;24008;42.664;23.372;2023-02-11T08:21:37;96301.91;;;8.14;34.57
6136;BME280;24008;42.664;23.372;2023-02-11T08:24:06;96239.84;;;7.41;34.14
6136;BME280;24008;42.664;23.372;2023-02-11T08:26:33;96311.13;;;8.30;34.09
6136;BME280;24008;42.664;23.372;2023-02-11T08:29:04;96316.28;;;8.45;33.02
6136;BME280;24008;42.664;23.372;2023-02-11T08:31:33;96306.81;;;8.33;33.45
6136;BME280;24008;42.664;23.372;2023-02-11T08:34:01;96311.91;;;8.47;33.08
6136;BME280;24008;42.664;23.372;2023-02-11T08:36:29;96211.19;;;8.11;32.93
6136;BME280;24008;42.664;23.372;2023-02-11T08:38:57;96306.28;;;8.70;33.46
6136;BME280;24008;42.664;23.372;2023-02-11T08:41:28;96291.25;;;8.51;32.82
6136;BME280;24008;42.664;23.372;2023-02-11T08:43:55;96309.03;;;8.81;32.08
6136;BME280;24008;42.664;23.372;2023-02-11T08:46:21;96260.53;;;8.24;32.18
6136;BME280;24008;42.664;23.372;2023-02-11T08:48:49;96301.56;;;8.78;33.45
6136;BME280;24008;42.664;23.372;2023-02-11T08:51:17;96306.72;;;8.48;32.95
6136;BME280;24008;42.664;23.372;2023-02-11T08:53:44;96283.66;;;7.91;33.51
6136;BME280;24008;42.664;23.372;2023-02-11T08:56:12;96320.38;;;8.33;33.98
6136;BME280;24008;42.664;23.372;2023-02-11T08:58:42;96302.84;;;8.27;33.31
6136;BME280;24008;42.664;23.372;2023-02-11T09:01:09;96259.31;;;8.32;33.27
6136;BME280;24008;42.664;23.372;2023-02-11T09:03:36;96308.50;;;9.31;32.49
6136;BME280;24008;42.664;23.372;2023-02-11T09:06:04;96325.13;;;9.10;33.56
6136;BME280;24008;42.664;23.372;2023-02-11T09:08:33;96305.78;;;9.20;32.64
6136;BME280;24008;42.664;23.372;2023-02-11T09:11:00;96281.41;;;8.74;32.01
6136;BME280;24008;42.664;23.372;2023-02-11T09:13:26;96303.63;;;8.43;33.20
6136;BME280;24008;42.664;23.372;2023-02-11T09:15:55;96197.44;;;7.71;33.64
6136;BME280;24008;42.664;23.372;2023-02-11T09:18:21;96191.56;;;7.55;34.04
6136;BME280;24008;42.664;23.372;2023-02-11T09:20:48;96297.66;;;7.99;33.45
6136;BME280;24008;42.664;23.372;2023-02-11T09:23:15;96291.75;;;7.98;33.45
6136;BME280;24008;42.664;23.372;2023-02-11T09:25:42;96223.34;;;7.78;33.70
6136;BME280;24008;42.664;23.372;2023-02-11T09:28:09;96289.78;;;9.04;32.84
6136;BME280;24008;42.664;23.372;2023-02-11T09:30:36;96288.34;;;9.41;32.42
6136;BME280;24008;42.664;23.372;2023-02-11T09:33:05;96256.69;;;9.44;31.50
6136;BME280;24008;42.664;23.372;2023-02-11T09:35:32;96274.38;;;9.47;31.41
6136;BME280;24008;42.664;23.372;2023-02-11T09:37:59;96289.72;;;9.32;31.68
6136;BME280;24008;42.664;23.372;2023-02-11T09:40:26;96160.41;;;9.06;31.70
6136;BME280;24008;42.664;23.372;2023-02-11T09:42:56;96176.06;;;9.14;31.69
6136;BME280;24008;42.664;23.372;2023-02-11T09:45:27;96260.09;;;9.57;31.10
6136;BME280;24008;42.664;23.372;2023-02-11T09:47:56;96258.00;;;9.63;31.17
6136;BME280;24008;42.664;23.372;2023-02-11T09:50:30;96207.09;;;9.48;30.59
6136;BME280;24008;42.664;23.372;2023-02-11T09:53:00;96252.75;;;10.04;30.98
6136;BME280;24008;42.664;23.372;2023-02-11T09:55:31;96122.47;;;9.01;29.70
6136;BME280;24008;42.664;23.372;2023-02-11T09:58:04;96043.53;;;8.46;30.49
6136;BME280;24008;42.664;23.372;2023-02-11T10:00:36;96234.44;;;10.37;29.24
6136;BME280;24008;42.664;23.372;2023-02-11T10:03:31;96151.59;;;9.64;29.84
6136;BME280;24008;42.664;23.372;2023-02-11T10:06:15;96233.53;;;9.86;30.37
6136;BME280;24008;42.664;23.372;2023-02-11T10:08:56;96204.66;;;10.11;30.17
6136;BME280;24008;42.664;23.372;2023-02-11T10:11:31;96184.59;;;9.92;29.68
6136;BME280;24008;42.664;23.372;2023-02-11T10:14:09;96008.19;;;8.94;29.59
6136;BME280;24008;42.664;23.372;2023-02-11T10:16:50;96117.09;;;8.79;30.44
6136;BME280;24008;42.664;23.372;2023-02-11T10:19:37;96196.03;;;9.34;31.94
6136;BME280;24008;42.664;23.372;2023-02-11T10:22:16;96165.56;;;9.58;30.01
6136;BME280;24008;42.664;23.372;2023-02-11T10:24:49;96188.19;;;10.02;30.27
6136;BME280;24008;42.664;23.372;2023-02-11T10:27:19;96177.31;;;10.26;29.49
6136;BME280;24008;42.664;23.372;2023-02-11T10:29:50;96148.75;;;9.81;28.78
6136;BME280;24008;42.664;23.372;2023-02-11T10:32:27;96162.75;;;10.14;28.63
6136;BME280;24008;42.664;23.372;2023-02-11T10:35:00;95953.91;;;8.66;29.15
6136;BME280;24008;42.664;23.372;2023-02-11T10:37:30;96162.84;;;9.99;27.82
6136;BME280;24008;42.664;23.372;2023-02-11T10:39:57;96048.66;;;8.86;28.45
6136;BME280;24008;42.664;23.372;2023-02-11T10:42:23;96100.34;;;7.63;30.69
6136;BME280;24008;42.664;23.372;2023-02-11T10:44:56;96093.66;;;6.57;33.05
6136;BME280;24008;42.664;23.372;2023-02-11T10:47:26;96129.59;;;6.02;34.29
6136;BME280;24008;42.664;23.372;2023-02-11T10:49:54;96076.13;;;5.04;35.99
6136;BME280;24008;42.664;23.372;2023-02-11T10:52:28;96123.69;;;5.17;36.20
6136;BME280;24008;42.664;23.372;2023-02-11T10:55:17;96117.41;;;4.89;36.53
6136;BME280;24008;42.664;23.372;2023-02-11T10:57:52;95973.91;;;3.82;37.42
6136;BME280;24008;42.664;23.372;2023-02-11T11:00:33;96035.34;;;3.26;37.24
6136;BME280;24008;42.664;23.372;2023-02-11T11:03:04;96114.72;;;4.00;37.96
6136;BME280;24008;42.664;23.372;2023-02-11T11:05:34;96032.69;;;3.49;37.93
6136;BME280;24008;42.664;23.372;2023-02-11T11:08:03;96117.97;;;4.22;37.20
6136;BME280;24008;42.664;23.372;2023-02-11T11:10:38;96090.13;;;4.22;37.88
6136;BME280;24008;42.664;23.372;2023-02-11T11:13:26;95990.41;;;3.72;36.54
6136;BME280;24008;42.664;23.372;2023-02-11T11:16:16;95923.44;;;3.24;36.61
6136;BME280;24008;42.664;23.372;2023-02-11T11:18:44;96011.97;;;3.79;37.65
6136;BME280;24008;42.664;23.372;2023-02-11T11:21:13;96102.41;;;4.49;37.27
6136;BME280;24008;42.664;23.372;2023-02-11T11:23:47;96102.69;;;4.43;37.44
6136;BME280;24008;42.664;23.372;2023-02-11T11:26:16;96036.94;;;4.05;37.62
6136;BME280;24008;42.664;23.372;2023-02-11T11:28:52;96035.16;;;4.07;38.35
6136;BME280;24008;42.664;23.372;2023-02-11T11:31:22;95964.38;;;3.70;36.96
6136;BME280;24008;42.664;23.372;2023-02-11T11:33:51;96090.97;;;4.59;37.81
6136;BME280;24008;42.664;23.372;2023-02-11T11:36:21;95963.50;;;3.88;37.49
6136;BME280;24008;42.664;23.372;2023-02-11T11:38:52;96076.69;;;4.58;37.60
6136;BME280;24008;42.664;23.372;2023-02-11T11:41:24;96080.25;;;4.54;37.03
6136;BME280;24008;42.664;23.372;2023-02-11T11:43:56;96067.69;;;4.33;36.78
6136;BME280;24008;42.664;23.372;2023-02-11T11:46:25;96069.34;;;4.34;37.89
6136;BME280;24008;42.664;23.372;2023-02-11T11:48:57;96040.13;;;4.27;37.92
6136;BME280;24008;42.664;23.372;2023-02-11T11:51:27;95981.91;;;3.91;37.24
6136;BME280;24008;42.664;23.372;2023-02-11T11:53:58;96066.88;;;4.33;37.33
6136;BME280;24008;42.664;23.372;2023-02-11T11:56:28;96079.06;;;4.06;38.69
6136;BME280;24008;42.664;23.372;2023-02-11T11:58:55;96001.59;;;3.66;37.17
6136;BME280;24008;42.664;23.372;2023-02-11T12:01:34;96050.88;;;3.95;37.67
6136;BME280;24008;42.664;23.372;2023-02-11T12:04:27;96040.69;;;3.96;38.75
6136;BME280;24008;42.664;23.372;2023-02-11T12:07:10;96046.50;;;3.98;37.58
6136;BME280;24008;42.664;23.372;2023-02-11T12:09:48;95871.94;;;3.08;37.97
6136;BME280;24008;42.664;23.372;2023-02-11T12:12:37;95911.81;;;3.57;38.07
6136;BME280;24008;42.664;23.372;2023-02-11T12:15:17;95876.94;;;3.47;38.39
6136;BME280;24008;42.664;23.372;2023-02-11T12:20:58;96012.16;;;4.30;38.09
6136;BME280;24008;42.664;23.372;2023-02-11T12:23:37;95944.03;;;3.90;38.75
6136;BME280;24008;42.664;23.372;2023-02-11T12:26:12;96014.53;;;4.33;39.18
6136;BME280;24008;42.664;23.372;2023-02-11T12:28:54;95960.22;;;4.05;39.25
6136;BME280;24008;42.664;23.372;2023-02-11T12:31:34;95962.09;;;4.18;39.65
6136;BME280;24008;42.664;23.372;2023-02-11T12:34:29;95927.53;;;4.00;39.25
6136;BME280;24008;42.664;23.372;2023-02-11T12:37:09;95984.84;;;4.54;37.41
6136;BME280;24008;42.664;23.372;2023-02-11T12:39:43;95944.97;;;4.23;37.11
6136;BME280;24008;42.664;23.372;2023-02-11T12:42:31;95949.53;;;4.17;37.44
6136;BME280;24008;42.664;23.372;2023-02-11T12:45:26;95933.81;;;4.10;37.41
6136;BME280;24008;42.664;23.372;2023-02-11T12:48:13;95962.78;;;4.22;36.50
6136;BME280;24008;42.664;23.372;2023-02-11T12:50:51;95984.75;;;4.21;35.72
6136;BME280;24008;42.664;23.372;2023-02-11T12:53:37;95936.44;;;3.90;36.17
6136;BME280;24008;42.664;23.372;2023-02-11T12:56:13;95974.13;;;4.13;35.10
6136;BME280;24008;42.664;23.372;2023-02-11T12:58:41;95890.22;;;3.50;35.47
6136;BME280;24008;42.664;23.372;2023-02-11T13:01:16;95943.31;;;4.05;36.03
6136;BME280;24008;42.664;23.372;2023-02-11T13:03:47;95968.22;;;4.31;35.47
6136;BME280;24008;42.664;23.372;2023-02-11T13:06:17;95972.22;;;4.35;36.41
6136;BME280;24008;42.664;23.372;2023-02-11T13:08:47;95967.09;;;4.37;36.11
6136;BME280;24008;42.664;23.372;2023-02-11T13:11:16;95859.25;;;3.64;36.38
6136;BME280;24008;42.664;23.372;2023-02-11T13:13:51;95957.88;;;4.36;37.24
6136;BME280;24008;42.664;23.372;2023-02-11T13:16:30;95942.00;;;4.15;36.83
6136;BME280;24008;42.664;23.372;2023-02-11T13:19:02;95928.16;;;4.05;37.51
6136;BME280;24008;42.664;23.372;2023-02-11T13:21:47;95919.59;;;4.08;37.81
6136;BME280;24008;42.664;23.372;2023-02-11T13:24:23;95921.00;;;4.13;37.30
6136;BME280;24008;42.664;23.372;2023-02-11T13:26:56;95948.50;;;4.38;37.16
6136;BME280;24008;42.664;23.372;2023-02-11T13:29:30;95955.34;;;4.36;37.01